Time;durP1;ratioP1;P1;durP2;ratioP2;P2;SDS_P1;SDS_P2;PMS_P1;PMS_P2;Temp;Humidity;BMP_temperature;BMP_pressure;BME280_temperature;BME280_humidity;BME280_pressure;Samples;Min_cycle;Max_cycle;Signal;HPM_P1;HPM_P2
2021/11/03 00:01:26;;;;;;;;;;;12.70;99.90;;;;;;4998048;28;1209;-53
2021/11/03 00:03:52;;;;;;;;;;;12.70;99.90;;;;;;4998276;28;943;-53
2021/11/03 00:06:19;;;;;;;;;;;12.70;99.90;;;;;;4998479;28;954;-53
2021/11/03 00:08:46;;;;;;;;;;;12.70;99.90;;;;;;4998385;28;854;-53
2021/11/03 00:11:12;;;;;;;;;;;12.70;99.90;;;;;;4997932;28;969;-53
2021/11/03 00:13:38;;;;;;;;;;;12.70;99.90;;;;;;4998325;28;965;-53
2021/11/03 00:16:04;;;;;;;;;;;12.70;99.90;;;;;;4998078;28;899;-53
2021/11/03 00:18:30;;;;;;;;;;;12.70;99.90;;;;;;4997765;28;1971;-53
2021/11/03 00:20:57;;;;;;;;;;;12.60;99.90;;;;;;4997955;28;1011;-53
2021/11/03 00:23:23;;;;;;;;;;;12.60;99.90;;;;;;4998084;28;883;-53
2021/11/03 00:25:49;;;;;;;;;;;12.60;99.90;;;;;;4997884;28;755;-53
2021/11/03 00:28:16;;;;;;;;;;;12.60;99.90;;;;;;4997961;28;834;-53
2021/11/03 00:30:43;;;;;;;;;;;12.60;99.90;;;;;;4997857;28;835;-53
2021/11/03 00:33:09;;;;;;;;;;;12.60;99.90;;;;;;4998021;28;947;-53
2021/11/03 00:35:35;;;;;;;;;;;12.60;99.90;;;;;;4997714;28;798;-53
2021/11/03 00:38:01;;;;;;;;;;;12.60;99.90;;;;;;4997745;28;751;-53
2021/11/03 00:40:27;;;;;;;;;;;12.60;99.90;;;;;;4996823;28;1960;-53
2021/11/03 00:42:53;;;;;;;;;;;12.60;99.90;;;;;;4997584;28;1027;-53
2021/11/03 00:45:20;;;;;;;;;;;12.60;99.90;;;;;;4997442;28;846;-53
2021/11/03 00:47:47;;;;;;;;;;;12.60;99.90;;;;;;4997473;28;898;-53
2021/11/03 00:50:13;;;;;;;;;;;12.50;99.90;;;;;;4997446;28;853;-53
2021/11/03 00:52:39;;;;;;;;;;;12.60;99.90;;;;;;4997345;28;901;-53
2021/11/03 00:55:05;;;;;;;;;;;12.50;99.90;;;;;;4997339;28;944;-53
2021/11/03 00:57:31;;;;;;;;;;;12.50;99.90;;;;;;4997347;28;965;-53
2021/11/03 00:59:58;;;;;;;;;;;12.50;99.90;;;;;;4997095;28;1974;-53
2021/11/03 01:02:24;;;;;;;;;;;12.50;99.90;;;;;;4997124;28;775;-53
2021/11/03 01:04:50;;;;;;;;;;;12.50;99.90;;;;;;4990873;28;783;-53
2021/11/03 01:07:16;;;;;;;;;;;12.50;99.90;;;;;;4997129;28;1006;-53
2021/11/03 01:09:43;;;;;;;;;;;12.50;99.90;;;;;;4996849;28;1149;-53
2021/11/03 01:12:09;;;;;;;;;;;12.50;99.90;;;;;;4997055;28;907;-53
2021/11/03 01:14:35;;;;;;;;;;;12.50;99.90;;;;;;4996960;28;945;-53
2021/11/03 01:17:02;;;;;;;;;;;12.50;99.90;;;;;;4996794;28;890;-53
2021/11/03 01:19:28;;;;;;;;;;;12.50;99.90;;;;;;4996618;28;1965;-53
2021/11/03 01:21:54;;;;;;;;;;;12.50;99.90;;;;;;4994241;28;1252;-53
2021/11/03 01:24:20;;;;;;;;;;;12.50;99.90;;;;;;4996234;28;1609;-53
2021/11/03 01:26:46;;;;;;;;;;;12.40;99.90;;;;;;4996663;28;778;-53
2021/11/03 01:29:12;;;;;;;;;;;12.40;99.90;;;;;;4996738;28;778;-53
2021/11/03 01:31:38;;;;;;;;;;;12.40;99.90;;;;;;4995096;28;844;-53
2021/11/03 01:34:04;;;;;;;;;;;12.40;99.90;;;;;;4996949;28;864;-53
2021/11/03 01:36:30;;;;;;;;;;;12.40;99.90;;;;;;4996923;28;1033;-53
2021/11/03 01:38:56;;;;;;;;;;;12.40;99.90;;;;;;4996505;28;1910;-53
2021/11/03 01:41:23;;;;;;;;;;;12.40;99.90;;;;;;4996164;28;825;-53
2021/11/03 01:43:50;;;;;;;;;;;12.40;99.90;;;;;;4996941;28;1053;-53
2021/11/03 01:46:19;;;;;;;;;;;12.40;99.90;;;;;;4996234;28;1849;-53
2021/11/03 01:48:45;;;;;;;;;;;12.40;99.90;;;;;;4996479;28;829;-53
2021/11/03 01:51:15;;;;;;;;;;;12.40;99.90;;;;;;4996571;28;1136;-53
2021/11/03 01:53:41;;;;;;;;;;;12.40;99.90;;;;;;4996671;28;1059;-53
2021/11/03 01:56:09;;;;;;;;;;;12.40;99.90;;;;;;4996424;28;910;-53
2021/11/03 01:58:38;;;;;;;;;;;12.30;99.90;;;;;;4995837;28;1973;-53
2021/11/03 02:01:04;;;;;;;;;;;12.30;99.90;;;;;;4996010;28;1088;-51
2021/11/03 02:03:31;;;;;;;;;;;12.40;99.90;;;;;;4996352;28;825;-51
2021/11/03 02:06:03;;;;;;;;;;;12.30;99.90;;;;;;4996510;28;850;-51
2021/11/03 02:08:31;;;;;;;;;;;12.30;99.90;;;;;;4996285;28;1645;-51
2021/11/03 02:10:57;;;;;;;;;;;12.30;99.90;;;;;;4996545;28;783;-51
2021/11/03 02:13:23;;;;;;;;;;;12.30;99.90;;;;;;4996201;28;881;-51
2021/11/03 02:15:49;;;;;;;;;;;12.30;99.90;;;;;;4996249;28;874;-51
2021/11/03 02:18:16;;;;;;;;;;;12.30;99.90;;;;;;4996149;28;1243;-51
2021/11/03 02:20:44;;;;;;;;;;;12.30;99.90;;;;;;4996311;28;1978;-51
2021/11/03 02:23:15;;;;;;;;;;;12.30;99.90;;;;;;4996385;28;863;-51
2021/11/03 02:25:45;;;;;;;;;;;12.30;99.90;;;;;;4996454;28;794;-51
2021/11/03 02:28:11;;;;;;;;;;;12.20;99.90;;;;;;4996000;28;901;-51
2021/11/03 02:30:37;;;;;;;;;;;12.20;99.90;;;;;;4995227;28;1390;-51
2021/11/03 02:33:07;;;;;;;;;;;12.20;99.90;;;;;;4995748;28;923;-51
2021/11/03 02:35:34;;;;;;;;;;;12.20;99.90;;;;;;4979991;28;1022;-51
2021/11/03 02:38:01;;;;;;;;;;;12.20;99.90;;;;;;4979992;28;831;-51
2021/11/03 02:40:39;;;;;;;;;;;12.20;99.90;;;;;;4996121;28;1964;-51
2021/11/03 02:43:04;;;;;;;;;;;12.30;99.90;;;;;;4994301;28;1349;-51
2021/11/03 02:45:48;;;;;;;;;;;12.30;99.90;;;;;;4995871;28;1025;-51
2021/11/03 02:48:14;;;;;;;;;;;12.20;99.90;;;;;;4992043;28;1078;-50
2021/11/03 02:50:59;;;;;;;;;;;12.20;99.90;;;;;;4996058;28;995;-51
2021/11/03 02:53:25;;;;;;;;;;;12.20;99.90;;;;;;4995805;28;1031;-53
2021/11/03 02:55:51;;;;;;;;;;;12.20;99.90;;;;;;4996235;28;1137;-53
2021/11/03 02:58:17;;;;;;;;;;;12.20;99.90;;;;;;4995956;28;806;-53
2021/11/03 03:00:43;;;;;;;;;;;12.20;99.90;;;;;;5001661;28;1887;-53
2021/11/03 03:03:09;;;;;;;;;;;12.20;99.90;;;;;;4997325;28;846;-53
2021/11/03 03:05:35;;;;;;;;;;;12.20;99.90;;;;;;4997654;28;1600;-53
2021/11/03 03:08:01;;;;;;;;;;;12.20;99.90;;;;;;4999360;28;734;-53
2021/11/03 03:10:28;;;;;;;;;;;12.20;99.90;;;;;;4999310;28;849;-53
2021/11/03 03:12:54;;;;;;;;;;;12.20;99.90;;;;;;4998631;28;1119;-53
2021/11/03 03:15:20;;;;;;;;;;;12.20;99.90;;;;;;4999220;28;885;-53
2021/11/03 03:17:46;;;;;;;;;;;12.20;99.90;;;;;;4998990;28;968;-53
2021/11/03 03:20:12;;;;;;;;;;;12.30;99.90;;;;;;4998797;28;1914;-53
2021/11/03 03:22:38;;;;;;;;;;;12.30;99.90;;;;;;4998737;28;1560;-53
2021/11/03 03:25:04;;;;;;;;;;;12.30;99.90;;;;;;4999245;28;980;-53
2021/11/03 03:27:30;;;;;;;;;;;12.30;99.90;;;;;;4998867;28;762;-53
2021/11/03 03:29:57;;;;;;;;;;;12.30;99.90;;;;;;4999137;28;911;-53
2021/11/03 03:32:23;;;;;;;;;;;12.30;99.90;;;;;;4998735;28;783;-53
2021/11/03 03:34:49;;;;;;;;;;;12.30;99.90;;;;;;4998907;28;1075;-53
2021/11/03 03:37:15;;;;;;;;;;;12.30;99.90;;;;;;4998744;28;1097;-53
2021/11/03 03:39:41;;;;;;;;;;;12.30;99.90;;;;;;4998734;28;1911;-53
2021/11/03 03:42:09;;;;;;;;;;;12.30;99.90;;;;;;4998682;28;880;-53
2021/11/03 03:44:35;;;;;;;;;;;12.30;99.90;;;;;;4998658;28;878;-53
2021/11/03 03:47:01;;;;;;;;;;;12.30;99.90;;;;;;4998737;28;794;-53
2021/11/03 03:49:27;;;;;;;;;;;12.30;99.90;;;;;;4998825;28;806;-53
2021/11/03 03:51:53;;;;;;;;;;;12.30;99.90;;;;;;4998777;28;915;-53
2021/11/03 03:54:20;;;;;;;;;;;12.30;99.90;;;;;;4998621;28;1098;-53
2021/11/03 03:56:46;;;;;;;;;;;12.30;99.90;;;;;;4998514;28;850;-53
2021/11/03 03:59:13;;;;;;;;;;;12.30;99.90;;;;;;4998243;28;1970;-53
2021/11/03 04:01:39;;;;;;;;;;;12.30;99.90;;;;;;4998082;28;1010;-53
2021/11/03 04:04:06;;;;;;;;;;;12.30;99.90;;;;;;4984962;28;1093;-53
2021/11/03 04:06:32;;;;;;;;;;;12.30;99.90;;;;;;4998329;28;798;-53
2021/11/03 04:08:58;;;;;;;;;;;12.20;99.90;;;;;;4998050;28;1147;-53
2021/11/03 04:11:24;;;;;;;;;;;12.20;99.90;;;;;;4994319;28;893;-53
2021/11/03 04:13:50;;;;;;;;;;;12.20;99.90;;;;;;4997341;28;904;-53
2021/11/03 04:16:16;;;;;;;;;;;12.20;99.90;;;;;;4997426;28;817;-53
2021/11/03 04:18:42;;;;;;;;;;;12.20;99.90;;;;;;4998054;28;900;-53
2021/11/03 04:21:08;;;;;;;;;;;12.20;99.90;;;;;;4997895;28;1938;-53
2021/11/03 04:23:35;;;;;;;;;;;12.20;99.90;;;;;;4998166;28;959;-53
2021/11/03 04:26:01;;;;;;;;;;;12.20;99.90;;;;;;4997799;28;1020;-53
2021/11/03 04:28:26;;;;;;;;;;;12.20;99.90;;;;;;4995989;28;936;-53
2021/11/03 04:30:52;;;;;;;;;;;12.20;99.90;;;;;;4997597;28;1020;-53
2021/11/03 04:33:19;;;;;;;;;;;12.20;99.90;;;;;;4997822;28;999;-53
2021/11/03 04:35:47;;;;;;;;;;;12.20;99.90;;;;;;4996885;28;1141;-53
2021/11/03 04:38:13;;;;;;;;;;;12.20;99.90;;;;;;4996317;28;1073;-53
2021/11/03 04:40:39;;;;;;;;;;;12.10;99.90;;;;;;4997520;28;1963;-53
2021/11/03 04:43:05;;;;;;;;;;;12.10;99.90;;;;;;4997448;28;1021;-53
2021/11/03 04:45:31;;;;;;;;;;;12.10;99.90;;;;;;4997533;28;926;-53
2021/11/03 04:47:57;;;;;;;;;;;12.10;99.90;;;;;;4997338;28;930;-53
2021/11/03 04:50:25;;;;;;;;;;;12.10;99.90;;;;;;4997580;28;902;-53
2021/11/03 04:52:51;;;;;;;;;;;12.10;99.90;;;;;;4997400;28;873;-53
2021/11/03 04:55:17;;;;;;;;;;;12.10;99.90;;;;;;4996954;28;930;-53
2021/11/03 04:57:43;;;;;;;;;;;12.10;99.90;;;;;;4997358;28;878;-53
2021/11/03 05:00:14;;;;;;;;;;;12.10;99.90;;;;;;4996872;28;1983;-53
2021/11/03 05:02:40;;;;;;;;;;;12.10;99.90;;;;;;4997124;28;846;-53
2021/11/03 05:05:06;;;;;;;;;;;12.10;99.90;;;;;;4997161;28;850;-53
2021/11/03 05:07:32;;;;;;;;;;;12.10;99.90;;;;;;4997129;28;762;-51
2021/11/03 05:09:58;;;;;;;;;;;12.10;99.90;;;;;;4997146;28;919;-51
2021/11/03 05:12:24;;;;;;;;;;;12.10;99.90;;;;;;4996872;28;927;-51
2021/11/03 05:14:50;;;;;;;;;;;12.10;99.90;;;;;;4997131;28;883;-51
2021/11/03 05:17:15;;;;;;;;;;;12.10;99.90;;;;;;4996805;28;822;-51
2021/11/03 05:19:41;;;;;;;;;;;12.10;99.90;;;;;;4996820;28;1966;-51
2021/11/03 05:22:09;;;;;;;;;;;12.10;99.90;;;;;;4995148;28;1251;-51
2021/11/03 05:24:35;;;;;;;;;;;12.10;99.90;;;;;;4996729;28;1092;-51
2021/11/03 05:27:01;;;;;;;;;;;12.10;99.90;;;;;;4996387;28;783;-51
2021/11/03 05:29:27;;;;;;;;;;;12.10;99.90;;;;;;4997005;28;1018;-51
2021/11/03 05:31:52;;;;;;;;;;;12.10;99.90;;;;;;4997037;28;1034;-51
2021/11/03 05:34:18;;;;;;;;;;;12.10;99.90;;;;;;4996901;28;893;-51
2021/11/03 05:36:44;;;;;;;;;;;12.10;99.90;;;;;;4996749;28;901;-51
2021/11/03 05:39:12;;;;;;;;;;;12.10;99.90;;;;;;4996633;28;2024;-51
2021/11/03 05:41:38;;;;;;;;;;;12.10;99.90;;;;;;4996624;28;897;-51
2021/11/03 05:44:05;;;;;;;;;;;12.10;99.90;;;;;;4996615;28;1143;-51
2021/11/03 05:46:32;;;;;;;;;;;12.10;99.90;;;;;;4996562;28;854;-51
2021/11/03 05:48:59;;;;;;;;;;;12.10;99.90;;;;;;4996526;28;924;-51
2021/11/03 05:51:26;;;;;;;;;;;12.20;99.90;;;;;;4996389;28;1117;-51
2021/11/03 05:53:52;;;;;;;;;;;12.20;99.90;;;;;;4996299;28;1036;-51
2021/11/03 05:56:18;;;;;;;;;;;12.20;99.90;;;;;;4996707;28;835;-53
2021/11/03 05:58:44;;;;;;;;;;;12.20;99.90;;;;;;4975348;28;1271;-52
2021/11/03 06:01:10;;;;;;;;;;;12.30;99.90;;;;;;4975130;28;1906;-52
2021/11/03 06:03:36;;;;;;;;;;;12.30;99.90;;;;;;4975399;28;1071;-52
2021/11/03 06:06:03;;;;;;;;;;;12.40;99.90;;;;;;4975485;28;816;-52
2021/11/03 06:08:29;;;;;;;;;;;12.40;99.90;;;;;;4969916;28;863;-52
2021/11/03 06:10:56;;;;;;;;;;;12.50;99.90;;;;;;4975411;28;893;-52
2021/11/03 06:13:22;;;;;;;;;;;12.50;99.90;;;;;;4975125;28;892;-52
2021/11/03 06:15:48;;;;;;;;;;;12.50;99.90;;;;;;4975162;28;935;-52
2021/11/03 06:18:14;;;;;;;;;;;12.50;99.90;;;;;;4975257;28;914;-52
2021/11/03 06:20:40;;;;;;;;;;;12.50;99.90;;;;;;4975129;28;1914;-52
2021/11/03 06:23:06;;;;;;;;;;;12.50;99.90;;;;;;4975255;28;866;-52
2021/11/03 06:25:35;;;;;;;;;;;12.50;99.90;;;;;;4975268;28;831;-52
2021/11/03 06:28:01;;;;;;;;;;;12.40;99.90;;;;;;4975029;28;959;-52
2021/11/03 06:30:31;;;;;;;;;;;12.40;99.90;;;;;;4975108;28;1306;-52
2021/11/03 06:32:57;;;;;;;;;;;12.40;99.90;;;;;;4974208;28;910;-52
2021/11/03 06:35:25;;;;;;;;;;;12.40;99.90;;;;;;4978877;28;945;-52
2021/11/03 06:37:52;;;;;;;;;;;12.40;99.90;;;;;;4996884;28;928;-52
2021/11/03 06:40:19;;;;;;;;;;;12.40;99.90;;;;;;4999768;28;1910;-52
2021/11/03 06:42:44;;;;;;;;;;;12.40;99.90;;;;;;4999696;28;877;-52
2021/11/03 06:45:11;;;;;;;;;;;12.40;99.90;;;;;;4998021;28;1032;-52
2021/11/03 06:47:37;;;;;;;;;;;12.40;99.90;;;;;;4999605;28;866;-52
2021/11/03 06:50:04;;;;;;;;;;;12.40;99.90;;;;;;4999712;28;834;-52
2021/11/03 06:52:31;;;;;;;;;;;12.40;99.90;;;;;;4999745;28;756;-52
2021/11/03 06:54:57;;;;;;;;;;;12.40;99.90;;;;;;4999953;28;880;-52
2021/11/03 06:57:23;;;;;;;;;;;12.40;99.90;;;;;;4999436;28;1132;-52
2021/11/03 06:59:49;;;;;;;;;;;12.40;99.90;;;;;;4999281;28;1906;-53
2021/11/03 07:02:16;;;;;;;;;;;12.30;99.90;;;;;;5017067;28;1038;-52
2021/11/03 07:04:42;;;;;;;;;;;12.30;99.90;;;;;;5018487;28;869;-52
2021/11/03 07:07:07;;;;;;;;;;;12.30;99.90;;;;;;5018125;28;1167;-52
2021/11/03 07:09:33;;;;;;;;;;;12.30;99.90;;;;;;5018177;28;921;-52
2021/11/03 07:11:59;;;;;;;;;;;12.30;99.90;;;;;;5018007;28;857;-52
2021/11/03 07:14:25;;;;;;;;;;;12.30;99.90;;;;;;5018216;28;1067;-52
2021/11/03 07:16:52;;;;;;;;;;;12.30;99.90;;;;;;5018064;28;910;-52
2021/11/03 07:19:21;;;;;;;;;;;12.20;99.90;;;;;;5015053;28;1915;-52
2021/11/03 07:21:48;;;;;;;;;;;12.20;99.90;;;;;;4998995;28;1469;-52
2021/11/03 07:24:14;;;;;;;;;;;12.20;99.90;;;;;;4999870;28;999;-52
2021/11/03 07:26:40;;;;;;;;;;;12.20;99.90;;;;;;5000001;28;1165;-52
2021/11/03 07:29:06;;;;;;;;;;;12.20;99.90;;;;;;4999655;28;771;-52
2021/11/03 07:31:32;;;;;;;;;;;12.20;99.90;;;;;;5015352;28;1255;-52
2021/11/03 07:33:58;;;;;;;;;;;12.20;99.90;;;;;;5017544;28;803;-55
2021/11/03 07:36:26;;;;;;;;;;;12.20;99.90;;;;;;5017677;28;795;-55
2021/11/03 07:38:52;;;;;;;;;;;12.20;99.90;;;;;;5017638;28;841;-52
2021/11/03 07:41:18;;;;;;;;;;;12.20;99.90;;;;;;5017682;28;1969;-52
2021/11/03 07:43:44;;;;;;;;;;;12.10;99.90;;;;;;5017417;28;767;-55
2021/11/03 07:46:11;;;;;;;;;;;12.10;99.90;;;;;;5017690;28;869;-52
2021/11/03 07:48:37;;;;;;;;;;;12.10;99.90;;;;;;5017286;28;774;-55
2021/11/03 07:51:10;;;;;;;;;;;12.10;99.90;;;;;;5017481;28;773;-55
2021/11/03 07:53:37;;;;;;;;;;;12.10;99.90;;;;;;4996817;28;829;-55
2021/11/03 07:56:05;;;;;;;;;;;12.10;99.90;;;;;;4999733;28;1136;-55
2021/11/03 07:58:33;;;;;;;;;;;12.10;99.90;;;;;;4982407;28;873;-52
2021/11/03 08:00:59;;;;;;;;;;;12.10;99.90;;;;;;4981856;28;1910;-52
2021/11/03 08:03:26;;;;;;;;;;;12.10;99.90;;;;;;4998464;28;815;-52
2021/11/03 08:05:54;;;;;;;;;;;12.10;99.90;;;;;;4998507;28;868;-52
2021/11/03 08:08:22;;;;;;;;;;;12.10;99.90;;;;;;4998264;28;759;-52
2021/11/03 08:10:49;;;;;;;;;;;12.10;99.90;;;;;;4997642;28;816;-52
2021/11/03 08:13:18;;;;;;;;;;;12.10;99.90;;;;;;4996772;28;1365;-55
2021/11/03 08:15:45;;;;;;;;;;;12.10;99.90;;;;;;4996119;28;1093;-55
2021/11/03 08:18:12;;;;;;;;;;;12.10;99.90;;;;;;4998214;28;1072;-55
2021/11/03 08:20:39;;;;;;;;;;;12.10;99.90;;;;;;4998166;28;1914;-52
2021/11/03 08:23:06;;;;;;;;;;;12.10;99.90;;;;;;4998185;28;1137;-54
2021/11/03 08:25:32;;;;;;;;;;;12.10;99.90;;;;;;4998058;28;929;-55
2021/11/03 08:27:58;;;;;;;;;;;12.00;99.90;;;;;;4997845;28;912;-55
2021/11/03 08:30:25;;;;;;;;;;;12.00;99.90;;;;;;4981589;28;1512;-55
2021/11/03 08:32:54;;;;;;;;;;;12.10;99.90;;;;;;4997666;28;893;-55
2021/11/03 08:35:22;;;;;;;;;;;12.10;99.90;;;;;;4997841;28;818;-52
2021/11/03 08:37:48;;;;;;;;;;;12.10;99.90;;;;;;4997778;28;766;-52
2021/11/03 08:40:15;;;;;;;;;;;12.10;99.90;;;;;;4997370;28;1906;-52
2021/11/03 08:42:41;;;;;;;;;;;12.10;99.90;;;;;;4997811;28;932;-52
2021/11/03 08:45:09;;;;;;;;;;;12.10;99.90;;;;;;4997878;28;855;-52
2021/11/03 08:47:36;;;;;;;;;;;12.10;99.90;;;;;;4997465;28;889;-52
2021/11/03 08:50:04;;;;;;;;;;;12.10;99.90;;;;;;4997693;28;910;-52
2021/11/03 08:52:30;;;;;;;;;;;12.10;99.90;;;;;;4997028;28;937;-52
2021/11/03 08:54:57;;;;;;;;;;;12.10;99.90;;;;;;4996986;28;993;-52
2021/11/03 08:57:24;;;;;;;;;;;12.10;99.90;;;;;;4997216;28;817;-52
2021/11/03 08:59:51;;;;;;;;;;;12.10;99.90;;;;;;4996585;28;1914;-54
2021/11/03 09:02:17;;;;;;;;;;;12.10;99.90;;;;;;4996641;28;1295;-52
2021/11/03 09:04:43;;;;;;;;;;;12.20;99.90;;;;;;4997209;28;771;-52
2021/11/03 09:07:12;;;;;;;;;;;12.20;99.90;;;;;;4997410;28;837;-52
2021/11/03 09:09:38;;;;;;;;;;;12.20;99.90;;;;;;4997337;28;845;-55
2021/11/03 09:12:06;;;;;;;;;;;12.30;99.90;;;;;;4997120;28;810;-52
2021/11/03 09:14:32;;;;;;;;;;;12.20;99.90;;;;;;4997182;28;818;-52
2021/11/03 09:16:58;;;;;;;;;;;12.30;99.90;;;;;;4948204;28;1008;-52
2021/11/03 09:19:24;;;;;;;;;;;12.30;99.90;;;;;;4996844;28;873;-54
2021/11/03 09:21:50;;;;;;;;;;;12.30;99.90;;;;;;4996015;28;1903;-54
2021/11/03 09:24:16;;;;;;;;;;;12.30;99.90;;;;;;4996899;28;799;-52
2021/11/03 09:26:43;;;;;;;;;;;12.30;99.90;;;;;;4997201;28;850;-52
2021/11/03 09:29:10;;;;;;;;;;;12.30;99.90;;;;;;4996436;28;870;-55
2021/11/03 09:31:37;;;;;;;;;;;12.30;99.90;;;;;;4996859;28;945;-55
2021/11/03 09:34:03;;;;;;;;;;;12.30;99.90;;;;;;4996754;28;846;-55
2021/11/03 09:36:30;;;;;;;;;;;12.30;99.90;;;;;;4996954;28;835;-55
2021/11/03 09:38:56;;;;;;;;;;;12.30;99.90;;;;;;4996691;28;763;-55
2021/11/03 09:41:27;;;;;;;;;;;12.30;99.90;;;;;;4996691;28;1902;-55
2021/11/03 09:43:57;;;;;;;;;;;12.30;99.90;;;;;;4996716;28;977;-55
2021/11/03 09:46:26;;;;;;;;;;;12.30;99.90;;;;;;4996643;28;777;-55
2021/11/03 09:48:58;;;;;;;;;;;12.30;99.90;;;;;;4996248;28;884;-55
2021/11/03 09:51:25;;;;;;;;;;;12.30;99.90;;;;;;4996880;28;848;-52
2021/11/03 09:53:58;;;;;;;;;;;12.30;99.90;;;;;;4996793;28;791;-55
2021/11/03 09:56:33;;;;;;;;;;;12.30;99.90;;;;;;4980077;28;1223;-55
2021/11/03 09:59:02;;;;;;;;;;;12.30;99.90;;;;;;4980149;28;837;-55
2021/11/03 10:01:42;;;;;;;;;;;12.20;99.90;;;;;;4996197;28;1946;-55
2021/11/03 10:04:17;;;;;;;;;;;12.30;99.90;;;;;;4996219;28;869;-52
2021/11/03 10:07:03;;;;;;;;;;;12.20;99.90;;;;;;4996676;28;969;-52
2021/11/03 10:09:29;;;;;;;;;;;12.30;99.90;;;;;;4996012;28;1537;-52
2021/11/03 10:11:55;;;;;;;;;;;12.30;99.90;;;;;;4996369;28;904;-55
2021/11/03 10:14:22;;;;;;;;;;;12.20;99.90;;;;;;4999730;28;790;-55
2021/11/03 10:16:51;;;;;;;;;;;12.20;99.90;;;;;;5000682;28;881;-55
2021/11/03 10:19:19;;;;;;;;;;;12.20;99.90;;;;;;5000268;28;1041;-52
2021/11/03 10:21:45;;;;;;;;;;;12.20;99.90;;;;;;5000224;28;1906;-55
2021/11/03 10:24:11;;;;;;;;;;;12.20;99.90;;;;;;4999985;28;810;-55
2021/11/03 10:26:57;;;;;;;;;;;12.20;99.90;;;;;;5000281;28;830;-52
2021/11/03 10:29:49;;;;;;;;;;;12.30;99.90;;;;;;5000303;28;928;-52
2021/11/03 10:32:21;;;;;;;;;;;12.30;99.90;;;;;;4995086;28;1259;-52
2021/11/03 10:34:49;;;;;;;;;;;12.30;99.90;;;;;;5000597;28;835;-55
2021/11/03 10:37:15;;;;;;;;;;;12.30;99.90;;;;;;4999902;28;1005;-53
2021/11/03 10:40:04;;;;;;;;;;;12.30;99.90;;;;;;4999948;28;756;-52
2021/11/03 10:42:36;;;;;;;;;;;12.30;99.90;;;;;;4999935;28;810;-55
2021/11/03 10:45:21;;;;;;;;;;;12.30;99.90;;;;;;5000158;28;842;-55
2021/11/03 10:47:53;;;;;;;;;;;12.30;99.90;;;;;;4999915;28;897;-55
2021/11/03 10:50:36;;;;;;;;;;;12.30;99.90;;;;;;4999712;28;858;-55
2021/11/03 10:53:13;;;;;;;;;;;12.30;99.90;;;;;;4999709;28;1220;-52
2021/11/03 10:55:40;;;;;;;;;;;12.30;99.90;;;;;;4993837;28;779;-52
2021/11/03 10:58:17;;;;;;;;;;;12.30;99.90;;;;;;4993948;28;947;-52
2021/11/03 11:00:55;;;;;;;;;;;12.30;99.90;;;;;;4999312;28;1906;-52
2021/11/03 11:03:23;;;;;;;;;;;12.30;99.90;;;;;;4982783;28;827;-55
2021/11/03 11:05:52;;;;;;;;;;;12.30;99.90;;;;;;4999503;28;766;-55
2021/11/03 11:08:26;;;;;;;;;;;12.30;99.90;;;;;;4999699;28;1066;-52
2021/11/03 11:10:52;;;;;;;;;;;12.30;99.90;;;;;;4999646;28;768;-52
2021/11/03 11:13:41;;;;;;;;;;;12.30;99.90;;;;;;4984902;28;1447;-52
2021/11/03 11:16:20;;;;;;;;;;;12.30;99.90;;;;;;4996154;28;1259;-55
2021/11/03 11:18:53;;;;;;;;;;;12.40;99.90;;;;;;4999372;28;1114;-52
2021/11/03 11:21:19;;;;;;;;;;;12.30;99.90;;;;;;4998978;28;1967;-52
2021/11/03 11:23:55;;;;;;;;;;;12.30;99.90;;;;;;4998845;28;787;-52
2021/11/03 11:26:37;;;;;;;;;;;12.40;99.90;;;;;;4999282;28;812;-53
2021/11/03 11:29:19;;;;;;;;;;;12.40;99.90;;;;;;4998923;28;886;-53
2021/11/03 11:31:53;;;;;;;;;;;12.40;99.90;;;;;;4993809;28;844;-53
2021/11/03 11:34:22;;;;;;;;;;;12.40;99.90;;;;;;4998968;28;836;-53
2021/11/03 11:36:54;;;;;;;;;;;12.40;99.90;;;;;;4999179;28;810;-53
2021/11/03 11:39:27;;;;;;;;;;;12.40;99.90;;;;;;4998996;28;894;-53
2021/11/03 11:42:01;;;;;;;;;;;12.40;99.90;;;;;;4998733;28;1899;-53
2021/11/03 11:44:29;;;;;;;;;;;12.40;99.90;;;;;;4998600;28;809;-53
2021/11/03 11:47:00;;;;;;;;;;;12.40;99.90;;;;;;4998654;28;979;-53
2021/11/03 11:49:31;;;;;;;;;;;12.40;99.90;;;;;;4998817;28;1121;-53
2021/11/03 11:52:01;;;;;;;;;;;12.40;99.90;;;;;;4998523;28;858;-53
2021/11/03 11:54:30;;;;;;;;;;;12.40;99.90;;;;;;4998699;28;889;-53
2021/11/03 11:57:11;;;;;;;;;;;12.40;99.90;;;;;;4998514;28;863;-53
2021/11/03 11:59:56;;;;;;;;;;;12.40;99.90;;;;;;4998541;28;827;-53
2021/11/03 12:02:24;;;;;;;;;;;12.40;99.90;;;;;;4998469;28;833;-56
2021/11/03 12:05:10;;;;;;;;;;;12.40;99.90;;;;;;4998343;28;782;-56
2021/11/03 12:07:36;;;;;;;;;;;12.40;99.90;;;;;;4998220;28;2021;-56
2021/11/03 12:10:02;;;;;;;;;;;12.40;99.90;;;;;;4998340;28;817;-53
2021/11/03 12:12:28;;;;;;;;;;;12.40;99.90;;;;;;4997359;28;981;-53
2021/11/03 12:14:56;;;;;;;;;;;12.40;99.90;;;;;;4997307;28;1205;-56
2021/11/03 12:17:44;;;;;;;;;;;12.40;99.90;;;;;;4998417;28;919;-56
2021/11/03 12:20:25;;;;;;;;;;;12.40;99.90;;;;;;4993880;28;1910;-53
2021/11/03 12:23:00;;;;;;;;;;;12.40;99.90;;;;;;4998102;28;889;-53
2021/11/03 12:25:25;;;;;;;;;;;12.40;99.90;;;;;;4998352;28;804;-53
2021/11/03 12:27:52;;;;;;;;;;;12.40;99.90;;;;;;4997812;28;887;-53
2021/11/03 12:30:37;;;;;;;;;;;12.40;99.90;;;;;;4998178;28;790;-53
2021/11/03 12:33:05;;;;;;;;;;;12.40;99.90;;;;;;4997849;28;904;-53
2021/11/03 12:35:31;;;;;;;;;;;12.40;99.90;;;;;;4997209;28;798;-56
2021/11/03 12:38:21;;;;;;;;;;;12.40;99.90;;;;;;4997777;28;818;-56
2021/11/03 12:40:50;;;;;;;;;;;12.40;99.90;;;;;;4997906;28;1910;-56
2021/11/03 12:43:19;;;;;;;;;;;12.40;99.90;;;;;;4997739;28;1102;-56
2021/11/03 12:45:50;;;;;;;;;;;12.40;99.90;;;;;;4997686;28;861;-56
2021/11/03 12:48:18;;;;;;;;;;;12.30;99.90;;;;;;4997680;28;887;-56
2021/11/03 12:50:46;;;;;;;;;;;12.40;99.90;;;;;;4997547;28;825;-53
2021/11/03 12:53:12;;;;;;;;;;;12.30;99.90;;;;;;4997459;28;822;-53
2021/11/03 12:55:45;;;;;;;;;;;12.30;99.90;;;;;;4997468;28;754;-53
2021/11/03 12:58:30;;;;;;;;;;;12.30;99.90;;;;;;4997338;28;792;-53
2021/11/03 13:00:58;;;;;;;;;;;12.30;99.90;;;;;;5004993;28;1959;-53
2021/11/03 13:03:29;;;;;;;;;;;12.30;99.90;;;;;;5015496;28;797;-55
2021/11/03 13:05:56;;;;;;;;;;;12.30;99.90;;;;;;4999378;28;828;-56
2021/11/03 13:08:24;;;;;;;;;;;12.30;99.90;;;;;;5016233;28;1012;-56
2021/11/03 13:11:02;;;;;;;;;;;12.30;99.90;;;;;;5016232;28;887;-56
2021/11/03 13:13:28;;;;;;;;;;;12.30;99.90;;;;;;5008300;28;1294;-56
2021/11/03 13:15:58;;;;;;;;;;;12.30;99.90;;;;;;5016024;28;839;-53
2021/11/03 13:18:25;;;;;;;;;;;12.30;99.90;;;;;;4983117;28;882;-53
2021/11/03 13:20:57;;;;;;;;;;;12.30;99.90;;;;;;5015767;28;1910;-55
2021/11/03 13:23:25;;;;;;;;;;;12.30;99.90;;;;;;4998608;28;1270;-53
2021/11/03 13:25:56;;;;;;;;;;;12.30;99.90;;;;;;4998653;28;836;-56
2021/11/03 13:28:33;;;;;;;;;;;12.30;99.90;;;;;;4998383;28;832;-56
2021/11/03 13:31:02;;;;;;;;;;;12.30;99.90;;;;;;5013702;28;892;-56
2021/11/03 13:33:48;;;;;;;;;;;12.30;99.90;;;;;;5015608;28;963;-56
2021/11/03 13:36:19;;;;;;;;;;;12.40;99.90;;;;;;5013873;28;951;-55
2021/11/03 13:39:12;;;;;;;;;;;12.40;99.90;;;;;;5015762;28;801;-56
2021/11/03 13:41:40;;;;;;;;;;;12.40;99.90;;;;;;5000065;28;1910;-55
2021/11/03 13:44:17;;;;;;;;;;;12.50;99.90;;;;;;5015206;28;910;-56
2021/11/03 13:46:46;;;;;;;;;;;12.50;99.90;;;;;;5015466;28;790;-56
2021/11/03 13:49:14;;;;;;;;;;;12.50;99.90;;;;;;5015077;28;1002;-55
2021/11/03 13:51:51;;;;;;;;;;;12.50;99.90;;;;;;5010583;28;1356;-56
2021/11/03 13:54:19;;;;;;;;;;;12.50;99.90;;;;;;5003627;28;972;-55
2021/11/03 13:56:50;;;;;;;;;;;12.50;99.90;;;;;;4997385;28;759;-56
2021/11/03 13:59:24;;;;;;;;;;;12.50;99.90;;;;;;4979994;28;861;-53
2021/11/03 14:01:52;;;;;;;;;;;12.50;99.90;;;;;;5014576;28;1910;-55
2021/11/03 14:04:20;;;;;;;;;;;12.50;99.90;;;;;;5015154;28;799;-55
2021/11/03 14:07:04;;;;;;;;;;;12.50;99.90;;;;;;4998215;28;1124;-53
2021/11/03 14:09:30;;;;;;;;;;;12.50;99.90;;;;;;5015429;28;814;-56
2021/11/03 14:11:57;;;;;;;;;;;12.50;99.90;;;;;;4982003;28;830;-55
2021/11/03 14:14:24;;;;;;;;;;;12.50;99.90;;;;;;4993702;28;1676;-55
2021/11/03 14:17:05;;;;;;;;;;;12.50;99.90;;;;;;5006320;28;865;-55
2021/11/03 14:19:34;;;;;;;;;;;12.50;99.90;;;;;;5015013;28;898;-56
2021/11/03 14:22:00;;;;;;;;;;;12.50;99.90;;;;;;5014953;28;1902;-53
2021/11/03 14:24:27;;;;;;;;;;;12.50;99.90;;;;;;5014842;28;1317;-53
2021/11/03 14:26:54;;;;;;;;;;;12.50;99.90;;;;;;5014629;28;835;-56
2021/11/03 14:29:20;;;;;;;;;;;12.50;99.90;;;;;;4996192;28;1245;-56
2021/11/03 14:31:47;;;;;;;;;;;12.50;99.90;;;;;;4997249;28;857;-56
2021/11/03 14:34:18;;;;;;;;;;;12.50;99.90;;;;;;4996975;28;1120;-53
2021/11/03 14:36:44;;;;;;;;;;;12.40;99.90;;;;;;4996958;28;849;-53
2021/11/03 14:39:21;;;;;;;;;;;12.40;99.90;;;;;;4996927;28;853;-53
2021/11/03 14:41:47;;;;;;;;;;;12.40;99.90;;;;;;4996890;28;1898;-53
2021/11/03 14:44:13;;;;;;;;;;;12.40;99.90;;;;;;4997135;28;908;-53
2021/11/03 14:46:42;;;;;;;;;;;12.40;99.90;;;;;;4996909;28;817;-53